Time;durP1;ratioP1;P1;durP2;ratioP2;P2;SDS_P1;SDS_P2;PMS_P1;PMS_P2;Temp;Humidity;BMP_temperature;BMP_pressure;BME280_temperature;BME280_humidity;BME280_pressure;Samples;Min_cycle;Max_cycle;Signal;HPM_P1;HPM_P2
2024/03/22 00:01:45;;;;;;;;;;;;;;;12.35;73.97;101771.03;5052960;27;99128;-75
2024/03/22 00:04:11;;;;;;;;;;;;;;;12.13;75.23;101769.00;5052028;27;96800;-71
2024/03/22 00:06:37;;;;;;;;;;;;;;;12.01;75.24;101766.69;5052866;27;96786;-72
2024/03/22 00:09:03;;;;;;;;;;;;;;;12.23;74.91;101768.72;5052908;27;98957;-72
2024/03/22 00:11:28;;;;;;;;;;;;;;;12.28;74.54;101766.81;5052803;27;97499;-72
2024/03/22 00:13:55;;;;;;;;;;;;;;;12.35;74.92;101768.38;5053379;27;96853;-72
2024/03/22 00:16:21;;;;;;;;;;;;;;;12.38;74.16;101770.97;5053313;27;96862;-72
2024/03/22 00:18:47;;;;;;;;;;;;;;;12.34;74.69;101766.66;5053324;27;98343;-72
2024/03/22 00:21:12;;;;;;;;;;;;;;;12.49;74.29;101764.50;5053890;27;98915;-72
2024/03/22 00:23:39;;;;;;;;;;;;;;;12.65;73.12;101765.84;5053609;27;96680;-72
2024/03/22 00:26:07;;;;;;;;;;;;;;;12.48;73.69;101762.75;5054139;27;97554;-73
2024/03/22 00:28:33;;;;;;;;;;;;;;;12.55;73.62;101754.59;5061118;27;99462;-70
2024/03/22 00:30:59;;;;;;;;;;;;;;;12.74;72.85;101742.56;5052867;27;100251;-70
2024/03/22 00:33:27;;;;;;;;;;;;;;;12.76;72.55;101743.38;5053005;27;96798;-72
2024/03/22 00:35:52;;;;;;;;;;;;;;;12.80;73.03;101738.00;5043813;27;96892;-72
2024/03/22 00:38:18;;;;;;;;;;;;;;;12.76;72.80;101737.22;5052128;27;99459;-73
2024/03/22 00:40:43;;;;;;;;;;;;;;;12.73;73.60;101732.03;5052210;27;98921;-71
2024/03/22 00:43:09;;;;;;;;;;;;;;;12.90;72.55;101729.72;5052469;27;97649;-72
2024/03/22 00:45:35;;;;;;;;;;;;;;;12.82;73.06;101736.16;5046605;27;96883;-71
2024/03/22 00:48:01;;;;;;;;;;;;;;;12.94;72.84;101715.44;5052754;27;98846;-71
2024/03/22 00:50:28;;;;;;;;;;;;;;;13.02;72.80;101721.41;5051702;27;99033;-71
2024/03/22 00:52:56;;;;;;;;;;;;;;;12.92;72.91;101719.94;5052395;27;96801;-72
2024/03/22 00:55:21;;;;;;;;;;;;;;;12.99;72.87;101729.47;5051725;27;96889;-71
2024/03/22 00:57:47;;;;;;;;;;;;;;;12.82;73.73;101723.78;5052700;27;99079;-72
2024/03/22 01:00:13;;;;;;;;;;;;;;;13.00;73.13;101717.91;5050520;27;98920;-70
2024/03/22 01:02:39;;;;;;;;;;;;;;;12.82;74.05;101715.81;5052270;27;96975;-71
2024/03/22 01:05:05;;;;;;;;;;;;;;;12.86;74.32;101716.63;5052573;27;97165;-71
2024/03/22 01:07:32;;;;;;;;;;;;;;;12.89;74.01;101705.91;5051953;27;99100;-71
2024/03/22 01:09:58;;;;;;;;;;;;;;;13.00;73.58;101703.78;5051863;27;98756;-71
2024/03/22 01:12:24;;;;;;;;;;;;;;;12.87;74.23;101705.06;5051976;27;97223;-71
2024/03/22 01:14:49;;;;;;;;;;;;;;;12.83;74.86;101699.00;5046738;27;96942;-71
2024/03/22 01:17:15;;;;;;;;;;;;;;;12.80;75.00;101692.94;5049331;27;98980;-71
2024/03/22 01:19:41;;;;;;;;;;;;;;;12.70;76.10;101689.66;5051443;27;98826;-71
2024/03/22 01:22:07;;;;;;;;;;;;;;;12.80;76.05;101695.56;5048939;27;96693;-70
2024/03/22 01:24:34;;;;;;;;;;;;;;;12.76;76.19;101697.44;5052146;27;96906;-71
2024/03/22 01:27:00;;;;;;;;;;;;;;;12.87;75.87;101691.78;5052162;27;98993;-75
2024/03/22 01:29:27;;;;;;;;;;;;;;;12.78;76.43;101687.66;5051474;27;98046;-75
2024/03/22 01:31:53;;;;;;;;;;;;;;;12.46;78.06;101691.25;5046631;27;96816;-75
2024/03/22 01:34:18;;;;;;;;;;;;;;;12.55;78.20;101687.44;5046795;27;97046;-75
2024/03/22 01:36:45;;;;;;;;;;;;;;;12.66;78.11;101683.59;5041457;27;98866;-75
2024/03/22 01:39:11;;;;;;;;;;;;;;;12.62;77.70;101686.34;5043630;27;99211;-75
2024/03/22 01:41:38;;;;;;;;;;;;;;;12.68;77.93;101676.44;5050931;27;97137;-74
2024/03/22 01:44:03;;;;;;;;;;;;;;;12.30;79.24;101671.38;5046709;27;97744;-75
2024/03/22 01:46:30;;;;;;;;;;;;;;;12.59;78.43;101668.78;5047558;27;97655;-75
2024/03/22 01:48:55;;;;;;;;;;;;;;;12.73;77.58;101666.56;5044697;27;98967;-73
2024/03/22 01:51:21;;;;;;;;;;;;;;;12.53;78.51;101670.72;5051306;27;96885;-75
2024/03/22 01:53:47;;;;;;;;;;;;;;;12.36;79.55;101668.53;5047449;27;96761;-74
2024/03/22 01:56:13;;;;;;;;;;;;;;;11.92;81.03;101669.78;5046711;27;97724;-75
2024/03/22 01:58:41;;;;;;;;;;;;;;;11.95;82.09;101667.03;5052218;27;97693;-75
2024/03/22 02:01:07;;;;;;;;;;;;;;;12.08;80.86;101662.28;5042692;27;96751;-75
2024/03/22 02:03:33;;;;;;;;;;;;;;;12.20;80.39;101660.19;5051478;27;96982;-75
2024/03/22 02:05:59;;;;;;;;;;;;;;;12.30;80.52;101664.28;5042749;27;98981;-75
2024/03/22 02:08:24;;;;;;;;;;;;;;;12.14;79.98;101660.31;5051563;27;98823;-74
2024/03/22 02:10:50;;;;;;;;;;;;;;;12.30;79.79;101655.47;5051098;27;96752;-73
2024/03/22 02:13:16;;;;;;;;;;;;;;;12.28;79.76;101644.91;5051539;27;96874;-74
2024/03/22 02:15:43;;;;;;;;;;;;;;;12.40;79.11;101651.66;5051456;27;98778;-72
2024/03/22 02:18:09;;;;;;;;;;;;;;;12.34;79.34;101650.03;5051212;27;98759;-74
2024/03/22 02:20:35;;;;;;;;;;;;;;;12.42;78.88;101651.59;5050092;27;97699;-74
2024/03/22 02:23:01;;;;;;;;;;;;;;;12.48;79.10;101635.50;5051650;27;96896;-75
2024/03/22 02:25:28;;;;;;;;;;;;;;;12.61;77.89;101639.53;5051180;27;97895;-75
2024/03/22 02:27:54;;;;;;;;;;;;;;;12.73;76.96;101626.78;5045162;27;98907;-75
2024/03/22 02:30:20;;;;;;;;;;;;;;;12.72;76.32;101619.75;5048286;27;96963;-74
2024/03/22 02:32:45;;;;;;;;;;;;;;;12.87;75.97;101620.19;5051170;27;97197;-75
2024/03/22 02:35:11;;;;;;;;;;;;;;;12.97;75.44;101611.91;5050980;27;98831;-74
2024/03/22 02:37:37;;;;;;;;;;;;;;;12.87;75.37;101606.91;5050845;27;98742;-75
2024/03/22 02:40:03;;;;;;;;;;;;;;;12.62;76.83;101599.72;5050542;27;96878;-74
2024/03/22 02:42:30;;;;;;;;;;;;;;;12.56;77.13;101601.69;5050479;27;96878;-74
2024/03/22 02:44:56;;;;;;;;;;;;;;;12.53;77.17;101597.38;5052525;27;98252;-74
2024/03/22 02:47:21;;;;;;;;;;;;;;;12.66;76.48;101593.44;5054271;27;98721;-74
2024/03/22 02:49:48;;;;;;;;;;;;;;;12.40;77.07;101601.31;5053569;27;96799;-74
2024/03/22 02:52:13;;;;;;;;;;;;;;;12.42;77.53;101598.59;5053847;27;96936;-75
2024/03/22 02:54:39;;;;;;;;;;;;;;;12.56;76.72;101591.09;5054289;27;97720;-74
2024/03/22 02:57:04;;;;;;;;;;;;;;;12.54;76.59;101591.13;5054036;27;99061;-73
2024/03/22 02:59:32;;;;;;;;;;;;;;;12.35;76.95;101589.94;5054149;27;97303;-74
2024/03/22 03:01:57;;;;;;;;;;;;;;;12.27;77.30;101574.25;5053290;27;98085;-74
2024/03/22 03:04:23;;;;;;;;;;;;;;;12.41;77.06;101573.84;5053611;27;98853;-73
2024/03/22 03:06:48;;;;;;;;;;;;;;;12.48;75.96;101580.72;5047324;27;97847;-74
2024/03/22 03:09:15;;;;;;;;;;;;;;;12.24;77.57;101566.41;5050922;27;96761;-74
2024/03/22 03:11:40;;;;;;;;;;;;;;;12.41;76.40;101570.34;5053535;27;96952;-74
2024/03/22 03:14:06;;;;;;;;;;;;;;;12.42;76.52;101559.69;5054143;27;99083;-75
2024/03/22 03:16:33;;;;;;;;;;;;;;;12.12;77.13;101564.13;5053775;27;99158;-74
2024/03/22 03:18:59;;;;;;;;;;;;;;;12.37;77.04;101554.53;5053678;27;96838;-75
2024/03/22 03:21:24;;;;;;;;;;;;;;;12.43;76.02;101548.19;5052726;27;96922;-75
2024/03/22 03:23:51;;;;;;;;;;;;;;;12.34;76.44;101551.97;5046225;27;98900;-73
2024/03/22 03:26:17;;;;;;;;;;;;;;;12.29;76.55;101545.94;5052975;27;98872;-74
2024/03/22 03:28:43;;;;;;;;;;;;;;;12.36;75.87;101530.72;5054567;27;96825;-74
2024/03/22 03:31:08;;;;;;;;;;;;;;;12.42;75.73;101525.25;5053425;27;97017;-74
2024/03/22 03:33:36;;;;;;;;;;;;;;;12.22;76.10;101512.59;5053321;27;98936;-75
2024/03/22 03:36:01;;;;;;;;;;;;;;;12.36;76.00;101509.53;5049353;27;98538;-74
2024/03/22 03:38:27;;;;;;;;;;;;;;;12.13;76.60;101512.03;5051106;27;96704;-74
2024/03/22 03:40:52;;;;;;;;;;;;;;;11.81;78.16;101511.19;5051734;27;96833;-75
2024/03/22 03:43:18;;;;;;;;;;;;;;;12.08;77.00;101519.25;5052722;27;101886;-74
2024/03/22 03:45:44;;;;;;;;;;;;;;;11.93;77.18;101520.53;5053358;27;99213;-74
2024/03/22 03:48:10;;;;;;;;;;;;;;;11.86;78.44;101521.63;5053712;27;96847;-74
2024/03/22 03:50:37;;;;;;;;;;;;;;;11.92;77.84;101508.22;5050343;27;96928;-75
2024/03/22 03:53:03;;;;;;;;;;;;;;;12.02;77.45;101499.06;5053750;27;99321;-74
2024/03/22 03:55:28;;;;;;;;;;;;;;;11.88;77.39;101491.53;5053228;27;98638;-74
2024/03/22 03:57:54;;;;;;;;;;;;;;;12.10;77.01;101486.47;5053375;27;98003;-74
2024/03/22 04:00:20;;;;;;;;;;;;;;;12.31;76.28;101484.97;5052733;27;96964;-75
2024/03/22 04:02:46;;;;;;;;;;;;;;;12.17;76.21;101482.72;5044792;27;98818;-74
2024/03/22 04:05:11;;;;;;;;;;;;;;;12.30;75.73;101488.50;5052529;27;98890;-73
2024/03/22 04:07:42;;;;;;;;;;;;;;;12.42;75.20;101477.53;5052980;27;96854;-73
2024/03/22 04:10:08;;;;;;;;;;;;;;;12.32;74.83;101479.63;5052823;27;96760;-75
2024/03/22 04:12:34;;;;;;;;;;;;;;;12.22;75.83;101462.25;5052368;27;98474;-73
2024/03/22 04:14:59;;;;;;;;;;;;;;;12.53;74.34;101470.13;5053003;27;98955;-74
2024/03/22 04:17:26;;;;;;;;;;;;;;;12.64;73.39;101468.00;5053212;27;96809;-75
2024/03/22 04:19:51;;;;;;;;;;;;;;;12.59;73.53;101469.06;5052767;27;97037;-75
2024/03/22 04:22:18;;;;;;;;;;;;;;;12.67;73.37;101461.69;5052282;27;98948;-75
2024/03/22 04:24:44;;;;;;;;;;;;;;;12.58;73.47;101469.97;5053177;27;99060;-74
2024/03/22 04:27:11;;;;;;;;;;;;;;;12.78;72.69;101462.22;5052829;27;96771;-74
2024/03/22 04:29:36;;;;;;;;;;;;;;;12.88;72.05;101455.69;5050726;27;96835;-74
2024/03/22 04:32:02;;;;;;;;;;;;;;;12.99;71.60;101452.69;5052367;27;100648;-75
2024/03/22 04:34:27;;;;;;;;;;;;;;;12.88;71.45;101446.84;5053955;27;99282;-75
2024/03/22 04:36:54;;;;;;;;;;;;;;;12.64;71.95;101440.59;5053333;27;96730;-75
2024/03/22 04:39:20;;;;;;;;;;;;;;;12.60;72.53;101436.34;5045145;27;97127;-75
2024/03/22 04:41:48;;;;;;;;;;;;;;;12.66;72.43;101428.16;5044868;27;98795;-74
2024/03/22 04:44:13;;;;;;;;;;;;;;;12.69;72.06;101433.34;5048120;27;97704;-74
2024/03/22 04:46:39;;;;;;;;;;;;;;;12.50;72.25;101426.94;5050656;27;97179;-75
2024/03/22 04:49:05;;;;;;;;;;;;;;;12.32;73.80;101431.91;5049962;27;97125;-75
2024/03/22 04:51:31;;;;;;;;;;;;;;;12.46;72.96;101428.81;5047657;27;98911;-74
2024/03/22 04:53:56;;;;;;;;;;;;;;;12.32;73.40;101423.97;5051588;27;98932;-74
2024/03/22 04:56:22;;;;;;;;;;;;;;;12.21;73.99;101423.41;5051609;27;99226;-75
2024/03/22 04:58:49;;;;;;;;;;;;;;;12.23;73.81;101418.94;5052107;27;96978;-75
2024/03/22 05:01:15;;;;;;;;;;;;;;;12.14;74.32;101421.88;5049496;27;98827;-74
2024/03/22 05:03:41;;;;;;;;;;;;;;;12.14;74.90;101418.38;5051175;27;98821;-75
2024/03/22 05:06:07;;;;;;;;;;;;;;;12.40;74.01;101414.91;5049564;27;96880;-74
2024/03/22 05:08:32;;;;;;;;;;;;;;;12.50;73.05;101403.94;5045747;27;97307;-74
2024/03/22 05:10:59;;;;;;;;;;;;;;;12.71;72.07;101405.00;5048474;27;99109;-74
2024/03/22 05:13:24;;;;;;;;;;;;;;;12.47;72.37;101411.97;5050142;27;99411;-73
2024/03/22 05:15:51;;;;;;;;;;;;;;;12.35;73.40;101409.72;5051788;27;97141;-73
2024/03/22 05:18:17;;;;;;;;;;;;;;;12.40;73.21;101417.56;5050766;27;96885;-74
2024/03/22 05:20:43;;;;;;;;;;;;;;;12.53;72.45;101405.63;5049477;27;98912;-74
2024/03/22 05:23:08;;;;;;;;;;;;;;;12.67;72.14;101408.66;5050898;27;100951;-74
2024/03/22 05:25:35;;;;;;;;;;;;;;;12.46;72.42;101404.97;5051425;27;97045;-74
2024/03/22 05:28:00;;;;;;;;;;;;;;;12.57;71.96;101388.69;5051435;27;97236;-74
2024/03/22 05:30:27;;;;;;;;;;;;;;;12.62;71.68;101389.41;5048949;27;99276;-74
2024/03/22 05:32:53;;;;;;;;;;;;;;;12.71;71.62;101384.66;5049469;27;98173;-74
2024/03/22 05:35:19;;;;;;;;;;;;;;;12.72;71.37;101382.88;5047204;27;97156;-73
2024/03/22 05:37:45;;;;;;;;;;;;;;;12.77;70.79;101383.59;5045262;27;99553;-74
2024/03/22 05:40:11;;;;;;;;;;;;;;;12.77;70.77;101379.16;5048891;27;99144;-74
2024/03/22 05:42:37;;;;;;;;;;;;;;;12.66;70.94;101375.16;5049578;27;98714;-74
2024/03/22 05:45:03;;;;;;;;;;;;;;;12.94;69.89;101377.69;5049044;27;97239;-75
2024/03/22 05:47:39;;;;;;;;;;;;;;;13.09;69.02;101372.72;5051871;27;97973;-75
2024/03/22 05:50:09;;;;;;;;;;;;;;;13.27;68.65;101363.25;5045303;27;99402;-74
2024/03/22 05:52:34;;;;;;;;;;;;;;;12.97;68.92;101359.88;5050341;27;101608;-75
2024/03/22 05:55:00;;;;;;;;;;;;;;;13.03;69.13;101353.50;5050791;27;97215;-72
2024/03/22 05:57:26;;;;;;;;;;;;;;;12.91;69.51;101352.16;5051167;27;97161;-72
2024/03/22 05:59:53;;;;;;;;;;;;;;;13.08;69.26;101356.84;5046652;27;100822;-72
2024/03/22 06:02:18;;;;;;;;;;;;;;;12.99;68.74;101341.28;5045379;27;101794;-72
2024/03/22 06:04:44;;;;;;;;;;;;;;;13.01;68.91;101345.56;5046911;27;96899;-72
2024/03/22 06:07:12;;;;;;;;;;;;;;;13.20;68.45;101347.59;5048958;27;96843;-72
2024/03/22 06:09:45;;;;;;;;;;;;;;;13.00;68.30;101340.31;5046444;27;99321;-72
2024/03/22 06:12:10;;;;;;;;;;;;;;;13.04;68.79;101336.66;5049994;27;97684;-71
2024/03/22 06:14:37;;;;;;;;;;;;;;;12.81;69.56;101341.91;5050445;27;97244;-71
2024/03/22 06:17:03;;;;;;;;;;;;;;;13.00;69.06;101337.66;5050398;27;96848;-71
2024/03/22 06:19:29;;;;;;;;;;;;;;;12.79;69.48;101331.38;5050006;27;98522;-72
2024/03/22 06:21:54;;;;;;;;;;;;;;;12.80;69.68;101326.94;5043704;27;99741;-72
2024/03/22 06:24:22;;;;;;;;;;;;;;;13.20;68.37;101323.72;5052295;27;96730;-72
2024/03/22 06:26:49;;;;;;;;;;;;;;;13.24;68.71;101326.22;5054325;27;98016;-72
2024/03/22 06:29:16;;;;;;;;;;;;;;;13.26;68.07;101318.19;5054325;27;99064;-72
2024/03/22 06:31:41;;;;;;;;;;;;;;;13.09;68.73;101322.28;5050442;27;98746;-72
2024/03/22 06:34:07;;;;;;;;;;;;;;;13.07;69.13;101326.78;5053587;27;97403;-72
2024/03/22 06:36:33;;;;;;;;;;;;;;;13.11;68.66;101316.94;5051573;27;96906;-72
2024/03/22 06:38:59;;;;;;;;;;;;;;;13.37;68.31;101321.31;5049941;27;98470;-71
2024/03/22 06:41:27;;;;;;;;;;;;;;;13.37;67.49;101316.00;5048888;27;101524;-72
2024/03/22 06:43:54;;;;;;;;;;;;;;;13.42;67.59;101314.91;5054578;27;96784;-72
2024/03/22 06:46:19;;;;;;;;;;;;;;;13.70;66.43;101320.00;5053143;27;99034;-72
2024/03/22 06:48:46;;;;;;;;;;;;;;;13.32;67.22;101313.53;5053828;27;102021;-71
2024/03/22 06:51:11;;;;;;;;;;;;;;;13.42;66.88;101308.72;5047742;27;99315;-71
2024/03/22 06:53:38;;;;;;;;;;;;;;;13.42;67.31;101314.03;5046529;27;96943;-70
2024/03/22 06:56:03;;;;;;;;;;;;;;;13.36;67.35;101303.66;5050017;27;96852;-72
2024/03/22 06:58:31;;;;;;;;;;;;;;;13.45;67.40;101303.31;5053211;27;98929;-72
2024/03/22 07:00:57;;;;;;;;;;;;;;;13.51;67.51;101300.41;5045665;27;99217;-71
2024/03/22 07:03:23;;;;;;;;;;;;;;;13.79;66.24;101301.03;5053938;27;96919;-72
2024/03/22 07:05:48;;;;;;;;;;;;;;;13.78;65.90;101286.06;5054050;27;96813;-71
2024/03/22 07:08:14;;;;;;;;;;;;;;;13.57;66.33;101297.50;5052511;27;98992;-71
2024/03/22 07:10:40;;;;;;;;;;;;;;;13.72;66.60;101291.56;5053011;27;99030;-72
2024/03/22 07:13:06;;;;;;;;;;;;;;;13.82;65.87;101287.66;5044811;27;96942;-71
2024/03/22 07:15:33;;;;;;;;;;;;;;;13.80;66.19;101289.50;5051310;27;96837;-71
2024/03/22 07:17:59;;;;;;;;;;;;;;;13.98;65.21;101287.03;5049681;27;98965;-71
2024/03/22 07:20:24;;;;;;;;;;;;;;;13.79;65.52;101287.75;5048592;27;98899;-72
2024/03/22 07:22:51;;;;;;;;;;;;;;;13.46;67.25;101283.78;5051969;27;97353;-71
2024/03/22 07:25:17;;;;;;;;;;;;;;;13.58;66.91;101288.63;5046386;27;100901;-72
2024/03/22 07:27:43;;;;;;;;;;;;;;;13.44;67.17;101289.16;5050236;27;99429;-72
2024/03/22 07:30:09;;;;;;;;;;;;;;;13.64;67.31;101279.56;5053070;27;99327;-72
2024/03/22 07:32:37;;;;;;;;;;;;;;;13.66;67.12;101285.66;5045029;27;96808;-71
2024/03/22 07:35:03;;;;;;;;;;;;;;;13.82;66.71;101282.34;5040410;27;97229;-72
2024/03/22 07:37:29;;;;;;;;;;;;;;;13.86;66.33;101283.94;5045433;27;102792;-71
2024/03/22 07:39:55;;;;;;;;;;;;;;;13.78;66.41;101286.06;5053162;27;98810;-70
2024/03/22 07:42:21;;;;;;;;;;;;;;;13.99;66.48;101284.28;5045054;27;97110;-72
2024/03/22 07:44:46;;;;;;;;;;;;;;;14.44;64.82;101280.69;5048290;27;96845;-72
2024/03/22 07:47:13;;;;;;;;;;;;;;;14.36;65.05;101278.31;5053166;27;96857;-71
2024/03/22 07:49:39;;;;;;;;;;;;;;;14.56;64.53;101275.69;5039886;27;98971;-71
2024/03/22 07:52:06;;;;;;;;;;;;;;;14.58;63.97;101272.94;5051058;27;97150;-72
2024/03/22 07:54:31;;;;;;;;;;;;;;;14.59;64.58;101272.88;5050050;27;96778;-74
2024/03/22 07:56:58;;;;;;;;;;;;;;;14.67;64.04;101276.09;5040868;27;100836;-75
2024/03/22 07:59:23;;;;;;;;;;;;;;;14.73;63.91;101272.28;5050973;27;98950;-75
2024/03/22 08:01:49;;;;;;;;;;;;;;;14.70;63.77;101267.13;5050814;27;97193;-75
2024/03/22 08:04:14;;;;;;;;;;;;;;;14.84;63.94;101269.13;5051270;27;96972;-75
2024/03/22 08:06:42;;;;;;;;;;;;;;;14.95;63.00;101261.56;5050875;27;99025;-74
2024/03/22 08:09:07;;;;;;;;;;;;;;;15.14;62.29;101250.00;5043115;27;99057;-74
2024/03/22 08:11:34;;;;;;;;;;;;;;;15.16;62.16;101255.25;5052019;27;96775;-74
2024/03/22 08:14:02;;;;;;;;;;;;;;;14.94;62.81;101257.16;5051631;27;97338;-74
2024/03/22 08:16:29;;;;;;;;;;;;;;;15.05;62.29;101258.41;5046142;27;97946;-75
2024/03/22 08:18:54;;;;;;;;;;;;;;;15.03;62.60;101254.94;5051055;27;97494;-74
2024/03/22 08:21:20;;;;;;;;;;;;;;;15.29;62.38;101251.09;5047595;27;97186;-74
2024/03/22 08:23:47;;;;;;;;;;;;;;;14.86;62.85;101252.19;5050640;27;96834;-75
2024/03/22 08:26:13;;;;;;;;;;;;;;;15.02;63.28;101249.69;5053169;27;99267;-75
2024/03/22 08:28:39;;;;;;;;;;;;;;;14.96;62.98;101250.84;5053845;27;99444;-74
2024/03/22 08:31:05;;;;;;;;;;;;;;;14.79;63.64;101247.19;5051594;27;97495;-75
2024/03/22 08:33:31;;;;;;;;;;;;;;;14.89;63.42;101238.75;5053759;27;96881;-74
2024/03/22 08:35:57;;;;;;;;;;;;;;;14.98;63.15;101235.66;5051934;27;98028;-75
2024/03/22 08:38:23;;;;;;;;;;;;;;;14.95;63.02;101224.31;5052896;27;99694;-75
2024/03/22 08:40:51;;;;;;;;;;;;;;;14.84;63.81;101218.59;5052846;27;97369;-75
2024/03/22 08:43:16;;;;;;;;;;;;;;;14.96;63.48;101220.72;5045476;27;96818;-74
2024/03/22 08:45:42;;;;;;;;;;;;;;;15.28;62.38;101211.22;5052900;27;101105;-74
2024/03/22 08:48:08;;;;;;;;;;;;;;;15.52;61.82;101212.69;5052512;27;100055;-76
2024/03/22 08:50:39;;;;;;;;;;;;;;;15.52;61.01;101207.38;5052868;27;97244;-75
2024/03/22 08:53:06;;;;;;;;;;;;;;;15.64;61.21;101204.13;5048332;27;96728;-75
2024/03/22 08:55:33;;;;;;;;;;;;;;;15.87;60.55;101192.34;5053151;27;99593;-74
2024/03/22 08:57:59;;;;;;;;;;;;;;;15.86;60.42;101187.94;5050236;27;98140;-76
2024/03/22 09:00:26;;;;;;;;;;;;;;;15.80;60.48;101182.94;5046315;27;97036;-75
2024/03/22 09:02:52;;;;;;;;;;;;;;;15.57;61.06;101191.19;5052847;27;97063;-74
2024/03/22 09:05:18;;;;;;;;;;;;;;;15.65;60.67;101183.69;5052986;27;98929;-73
2024/03/22 09:07:43;;;;;;;;;;;;;;;16.06;59.80;101182.47;5052724;27;98790;-74
2024/03/22 09:10:10;;;;;;;;;;;;;;;16.16;59.11;101178.38;5048550;27;96861;-74
2024/03/22 09:12:35;;;;;;;;;;;;;;;16.26;58.70;101174.31;5052996;27;96850;-75
2024/03/22 09:15:03;;;;;;;;;;;;;;;16.32;58.96;101170.44;5052258;27;99391;-76
2024/03/22 09:17:29;;;;;;;;;;;;;;;16.42;58.54;101169.00;5046317;27;99117;-76
2024/03/22 09:19:55;;;;;;;;;;;;;;;16.47;58.46;101160.78;5048362;27;96742;-75
2024/03/22 09:22:21;;;;;;;;;;;;;;;16.45;58.43;101154.66;5049167;27;96779;-74
2024/03/22 09:24:47;;;;;;;;;;;;;;;16.29;59.07;101155.47;5051365;27;101046;-75
2024/03/22 09:27:12;;;;;;;;;;;;;;;16.29;59.61;101139.47;5045434;27;98969;-75
2024/03/22 09:29:39;;;;;;;;;;;;;;;16.36;58.91;101145.34;5047254;27;97041;-75
2024/03/22 09:32:06;;;;;;;;;;;;;;;16.65;58.52;101152.69;5049754;27;97399;-75
2024/03/22 09:34:32;;;;;;;;;;;;;;;16.61;58.29;101156.44;5048573;27;99006;-74
2024/03/22 09:36:58;;;;;;;;;;;;;;;16.18;59.83;101163.16;5041890;27;98751;-74
2024/03/22 09:39:24;;;;;;;;;;;;;;;16.33;59.40;101151.72;5051835;27;97207;-75
2024/03/22 09:41:50;;;;;;;;;;;;;;;16.41;59.31;101150.44;5051921;27;97091;-74
2024/03/22 09:44:18;;;;;;;;;;;;;;;16.04;60.27;101144.38;5044676;27;98786;-74
2024/03/22 09:46:44;;;;;;;;;;;;;;;16.20;59.61;101144.44;5043497;27;99421;-74
2024/03/22 09:49:12;;;;;;;;;;;;;;;16.05;60.00;101146.09;5046981;27;96868;-75
2024/03/22 09:51:39;;;;;;;;;;;;;;;15.67;61.56;101140.06;5050748;27;96789;-74
2024/03/22 09:54:05;;;;;;;;;;;;;;;15.93;61.45;101141.41;5045148;27;98935;-73
2024/03/22 09:56:30;;;;;;;;;;;;;;;16.01;60.71;101141.88;5052157;27;100006;-74
2024/03/22 09:58:57;;;;;;;;;;;;;;;15.95;60.86;101142.16;5050928;27;97908;-73
2024/03/22 10:01:23;;;;;;;;;;;;;;;16.06;60.47;101134.50;5049204;27;97284;-73
2024/03/22 10:03:49;;;;;;;;;;;;;;;16.30;60.12;101130.53;5052248;27;99202;-73
2024/03/22 10:06:16;;;;;;;;;;;;;;;15.93;61.68;101136.06;5053582;27;102436;-74
2024/03/22 10:08:42;;;;;;;;;;;;;;;16.53;59.23;101134.66;5053120;27;99497;-72
2024/03/22 10:11:07;;;;;;;;;;;;;;;16.27;59.83;101132.50;5055593;27;97000;-70
2024/03/22 10:13:34;;;;;;;;;;;;;;;16.62;58.65;101118.16;5049739;27;100001;-71
2024/03/22 10:15:59;;;;;;;;;;;;;;;16.41;59.03;101113.09;5055278;27;99140;-71
2024/03/22 10:18:27;;;;;;;;;;;;;;;16.56;59.03;101109.59;5049917;27;96802;-72
2024/03/22 10:20:59;;;;;;;;;;;;;;;16.47;58.74;101115.44;5052117;27;97355;-70
2024/03/22 10:23:27;;;;;;;;;;;;;;;16.14;59.81;101110.09;5048330;27;98863;-70
2024/03/22 10:25:52;;;;;;;;;;;;;;;16.15;60.25;101102.00;5048800;27;99087;-70
2024/03/22 10:28:18;;;;;;;;;;;;;;;16.50;59.07;101100.13;5048763;27;96941;-71
2024/03/22 10:30:44;;;;;;;;;;;;;;;16.73;58.39;101101.56;5049995;27;96895;-71
2024/03/22 10:33:11;;;;;;;;;;;;;;;16.51;58.12;101103.66;5045557;27;98785;-73
2024/03/22 10:35:36;;;;;;;;;;;;;;;16.41;59.41;101089.09;5045851;27;99079;-72
2024/03/22 10:38:03;;;;;;;;;;;;;;;16.84;58.31;101091.16;5043976;27;97003;-71
2024/03/22 10:40:30;;;;;;;;;;;;;;;17.26;56.09;101084.34;5050030;27;97322;-71
2024/03/22 10:42:57;;;;;;;;;;;;;;;16.98;56.40;101095.72;5048211;27;97704;-71
2024/03/22 10:45:25;;;;;;;;;;;;;;;17.19;56.10;101089.16;5049860;27;100227;-71
2024/03/22 10:47:53;;;;;;;;;;;;;;;17.05;56.35;101087.28;5042536;27;96909;-72
2024/03/22 10:50:22;;;;;;;;;;;;;;;16.79;57.48;101082.56;5049766;27;96790;-71
2024/03/22 10:52:52;;;;;;;;;;;;;;;17.50;55.72;101088.22;5048877;27;98984;-71
2024/03/22 10:55:20;;;;;;;;;;;;;;;17.69;54.58;101078.22;5052003;27;101272;-73
2024/03/22 10:57:47;;;;;;;;;;;;;;;17.52;54.73;101068.47;5050921;27;96834;-71
2024/03/22 11:00:15;;;;;;;;;;;;;;;17.77;54.45;101067.94;5044969;27;97695;-71
2024/03/22 11:02:44;;;;;;;;;;;;;;;18.13;53.50;101066.63;5049401;27;99083;-72
2024/03/22 11:05:15;;;;;;;;;;;;;;;18.16;52.99;101059.28;5047404;27;98977;-71
2024/03/22 11:07:41;;;;;;;;;;;;;;;18.39;52.69;101065.00;5048738;27;97448;-72
2024/03/22 11:10:07;;;;;;;;;;;;;;;17.71;53.41;101057.59;5051779;27;100283;-71
2024/03/22 11:12:33;;;;;;;;;;;;;;;17.38;54.41;101048.88;5052097;27;101241;-71
2024/03/22 11:15:00;;;;;;;;;;;;;;;15.75;59.27;101051.75;5049853;27;101895;-71
2024/03/22 11:17:27;;;;;;;;;;;;;;;15.98;59.64;101047.88;5054372;27;96786;-72
2024/03/22 11:19:52;;;;;;;;;;;;;;;15.82;59.93;101034.47;5052018;27;97815;-72
2024/03/22 11:22:18;;;;;;;;;;;;;;;15.68;61.17;101042.34;5051664;27;98316;-72
2024/03/22 11:24:43;;;;;;;;;;;;;;;15.75;61.00;101041.09;5052929;27;98747;-71
2024/03/22 11:27:10;;;;;;;;;;;;;;;15.87;60.82;101053.78;5052962;27;97241;-71
2024/03/22 11:29:38;;;;;;;;;;;;;;;15.54;61.77;101046.59;5059599;27;96952;-72
2024/03/22 11:32:08;;;;;;;;;;;;;;;15.58;62.44;101043.75;5052850;27;98887;-71
2024/03/22 11:34:33;;;;;;;;;;;;;;;15.20;63.37;101041.22;5051620;27;98868;-71
2024/03/22 11:37:00;;;;;;;;;;;;;;;15.28;63.84;101036.38;5053171;27;97019;-72
2024/03/22 11:39:25;;;;;;;;;;;;;;;15.13;64.22;101040.66;5051493;27;96836;-71
2024/03/22 11:41:52;;;;;;;;;;;;;;;15.52;63.44;101040.47;5052309;27;97720;-74
2024/03/22 11:44:18;;;;;;;;;;;;;;;16.02;61.66;101034.28;5053050;27;100764;-72
2024/03/22 11:46:45;;;;;;;;;;;;;;;15.89;61.66;101038.53;5052967;27;96964;-71
2024/03/22 11:49:11;;;;;;;;;;;;;;;15.96;61.96;101029.28;5053049;27;100294;-70
2024/03/22 11:51:39;;;;;;;;;;;;;;;15.68;63.66;101018.38;5051689;27;98749;-71
2024/03/22 11:54:05;;;;;;;;;;;;;;;15.92;63.69;101028.59;5051880;27;98802;-71
2024/03/22 11:56:32;;;;;;;;;;;;;;;16.09;63.43;101024.16;5048774;27;98213;-71
2024/03/22 11:58:58;;;;;;;;;;;;;;;15.94;64.87;101023.19;5046262;27;96790;-70
2024/03/22 12:01:24;;;;;;;;;;;;;;;15.36;68.76;101020.00;5049163;27;100889;-71
2024/03/22 12:03:50;;;;;;;;;;;;;;;15.73;68.56;101011.88;5050807;27;98736;-72
2024/03/22 12:06:17;;;;;;;;;;;;;;;15.89;69.01;101012.75;5048627;27;96869;-72
2024/03/22 12:08:43;;;;;;;;;;;;;;;15.94;68.72;101001.88;5049239;27;96854;-72
2024/03/22 12:11:09;;;;;;;;;;;;;;;15.54;70.98;101000.44;5047601;27;99003;-72
2024/03/22 12:13:34;;;;;;;;;;;;;;;15.72;71.90;101004.81;5048223;27;99239;-71
2024/03/22 12:16:01;;;;;;;;;;;;;;;16.01;70.66;101000.59;5048973;27;97232;-71
2024/03/22 12:18:26;;;;;;;;;;;;;;;16.33;69.96;100989.03;5047869;27;96892;-71
2024/03/22 12:20:52;;;;;;;;;;;;;;;16.53;69.27;100987.06;5050893;27;101293;-72
2024/03/22 12:23:19;;;;;;;;;;;;;;;16.38;69.05;100988.78;5048069;27;98735;-71
2024/03/22 12:25:45;;;;;;;;;;;;;;;16.43;70.52;100980.50;5050893;27;97478;-72
2024/03/22 12:28:10;;;;;;;;;;;;;;;16.37;70.84;100987.06;5061136;27;96770;-71
2024/03/22 12:30:37;;;;;;;;;;;;;;;16.39;71.97;100978.97;5053452;27;97862;-71